sensor_id;sensor_type;location;lat;lon;timestamp;pressure;altitude;pressure_sealevel;temperature;humidity
60820;BME280;46641;48.904;9.126;2023-04-28T00:03:56;98390.81;;;18.41;44.14
60820;BME280;46641;48.904;9.126;2023-04-28T00:08:47;98382.28;;;18.39;44.13
60820;BME280;46641;48.904;9.126;2023-04-28T00:13:38;98378.19;;;18.37;44.13
60820;BME280;46641;48.904;9.126;2023-04-28T00:18:28;98381.84;;;18.36;44.23
60820;BME280;46641;48.904;9.126;2023-04-28T00:23:18;98377.56;;;18.35;44.22
60820;BME280;46641;48.904;9.126;2023-04-28T00:28:09;98371.63;;;18.33;44.28
60820;BME280;46641;48.904;9.126;2023-04-28T00:32:59;98370.22;;;18.30;44.05
60820;BME280;46641;48.904;9.126;2023-04-28T00:37:50;98367.75;;;18.29;44.33
60820;BME280;46641;48.904;9.126;2023-04-28T00:42:41;98371.44;;;18.28;44.19
60820;BME280;46641;48.904;9.126;2023-04-28T00:47:35;98363.50;;;18.28;44.35
60820;BME280;46641;48.904;9.126;2023-04-28T00:52:27;98356.75;;;18.25;44.37
60820;BME280;46641;48.904;9.126;2023-04-28T00:57:18;98356.97;;;18.24;44.46
60820;BME280;46641;48.904;9.126;2023-04-28T01:02:08;98354.31;;;18.24;44.44
60820;BME280;46641;48.904;9.126;2023-04-28T01:06:59;98349.41;;;18.20;44.61
60820;BME280;46641;48.904;9.126;2023-04-28T01:11:50;98341.47;;;18.20;44.47
60820;BME280;46641;48.904;9.126;2023-04-28T01:16:40;98328.41;;;18.19;44.54
60820;BME280;46641;48.904;9.126;2023-04-28T01:21:31;98335.53;;;18.18;44.43
60820;BME280;46641;48.904;9.126;2023-04-28T01:26:24;98325.34;;;18.15;44.46
60820;BME280;46641;48.904;9.126;2023-04-28T01:31:15;98322.69;;;18.15;44.53
60820;BME280;46641;48.904;9.126;2023-04-28T01:36:05;98312.50;;;18.12;44.48
60820;BME280;46641;48.904;9.126;2023-04-28T01:40:56;98317.81;;;18.12;44.69
60820;BME280;46641;48.904;9.126;2023-04-28T01:45:47;98317.22;;;18.10;44.97
60820;BME280;46641;48.904;9.126;2023-04-28T01:50:37;98307.19;;;18.06;44.73
60820;BME280;46641;48.904;9.126;2023-04-28T01:55:28;98307.81;;;18.01;44.87
60820;BME280;46641;48.904;9.126;2023-04-28T02:00:18;98299.22;;;17.99;45.01
60820;BME280;46641;48.904;9.126;2023-04-28T02:05:08;98295.97;;;17.97;45.23
60820;BME280;46641;48.904;9.126;2023-04-28T02:09:58;98292.91;;;17.93;45.17
60820;BME280;46641;48.904;9.126;2023-04-28T02:14:49;98296.78;;;17.91;45.52
60820;BME280;46641;48.904;9.126;2023-04-28T02:19:40;98284.53;;;17.90;45.30
60820;BME280;46641;48.904;9.126;2023-04-28T02:24:34;98292.69;;;17.88;45.32
60820;BME280;46641;48.904;9.126;2023-04-28T02:29:25;98278.66;;;17.88;45.45
60820;BME280;46641;48.904;9.126;2023-04-28T02:34:15;98279.66;;;17.87;45.48
60820;BME280;46641;48.904;9.126;2023-04-28T02:39:06;98286.19;;;17.84;45.39
60820;BME280;46641;48.904;9.126;2023-04-28T02:43:56;98301.63;;;17.81;45.31
60820;BME280;46641;48.904;9.126;2023-04-28T02:48:46;98310.59;;;17.80;45.55
60820;BME280;46641;48.904;9.126;2023-04-28T02:53:36;98319.34;;;17.80;45.45
60820;BME280;46641;48.904;9.126;2023-04-28T02:58:27;98316.91;;;17.79;45.63
60820;BME280;46641;48.904;9.126;2023-04-28T03:03:17;98309.94;;;17.78;45.87
60820;BME280;46641;48.904;9.126;2023-04-28T03:08:07;98295.09;;;17.77;45.87
60820;BME280;46641;48.904;9.126;2023-04-28T03:12:57;98298.72;;;17.75;45.56
60820;BME280;46641;48.904;9.126;2023-04-28T03:17:48;98285.91;;;17.72;45.82
60820;BME280;46641;48.904;9.126;2023-04-28T03:22:38;98277.31;;;17.70;45.83
60820;BME280;46641;48.904;9.126;2023-04-28T03:27:28;98265.13;;;17.69;46.09
60820;BME280;46641;48.904;9.126;2023-04-28T03:32:19;98261.84;;;17.67;46.18
60820;BME280;46641;48.904;9.126;2023-04-28T03:37:09;98261.25;;;17.65;46.11
60820;BME280;46641;48.904;9.126;2023-04-28T03:41:59;98258.78;;;17.64;45.98
60820;BME280;46641;48.904;9.126;2023-04-28T03:46:50;98245.75;;;17.62;46.15
60820;BME280;46641;48.904;9.126;2023-04-28T03:51:40;98243.28;;;17.61;46.07
60820;BME280;46641;48.904;9.126;2023-04-28T03:56:31;98245.34;;;17.59;46.13
60820;BME280;46641;48.904;9.126;2023-04-28T04:01:21;98248.00;;;17.59;46.07
60820;BME280;46641;48.904;9.126;2023-04-28T04:06:12;98234.34;;;17.55;46.18
60820;BME280;46641;48.904;9.126;2023-04-28T04:11:02;98233.50;;;17.55;46.22
60820;BME280;46641;48.904;9.126;2023-04-28T04:15:52;98237.16;;;17.53;46.07
60820;BME280;46641;48.904;9.126;2023-04-28T04:20:43;98242.84;;;17.50;46.22
60820;BME280;46641;48.904;9.126;2023-04-28T04:25:33;98245.50;;;17.50;46.17
60820;BME280;46641;48.904;9.126;2023-04-28T04:30:24;98252.00;;;17.48;46.24
60820;BME280;46641;48.904;9.126;2023-04-28T04:35:14;98244.06;;;17.48;46.17
60820;BME280;46641;48.904;9.126;2023-04-28T04:40:06;98243.47;;;17.46;46.45
60820;BME280;46641;48.904;9.126;2023-04-28T04:44:57;98241.00;;;17.44;46.33
60820;BME280;46641;48.904;9.126;2023-04-28T04:49:48;98237.75;;;17.42;46.29
60820;BME280;46641;48.904;9.126;2023-04-28T04:54:39;98236.91;;;17.42;46.51
60820;BME280;46641;48.904;9.126;2023-04-28T04:59:29;98221.03;;;17.42;46.38
60820;BME280;46641;48.904;9.126;2023-04-28T05:04:19;98219.25;;;17.42;46.63
60820;BME280;46641;48.904;9.126;2023-04-28T05:09:10;98226.34;;;17.42;46.77
60820;BME280;46641;48.904;9.126;2023-04-28T05:14:00;98223.47;;;17.37;46.70
60820;BME280;46641;48.904;9.126;2023-04-28T05:18:52;98226.53;;;17.34;46.63
60820;BME280;46641;48.904;9.126;2023-04-28T05:23:42;98220.59;;;17.32;46.16
60820;BME280;46641;48.904;9.126;2023-04-28T05:28:32;98228.47;;;16.49;52.68
60820;BME280;46641;48.904;9.126;2023-04-28T05:33:23;98234.38;;;16.79;52.18
60820;BME280;46641;48.904;9.126;2023-04-28T05:38:13;98238.59;;;16.45;54.30
60820;BME280;46641;48.904;9.126;2023-04-28T05:43:03;98235.09;;;16.94;52.11
60820;BME280;46641;48.904;9.126;2023-04-28T05:47:54;98231.72;;;17.14;50.86
60820;BME280;46641;48.904;9.126;2023-04-28T05:52:44;98228.50;;;17.25;50.23
60820;BME280;46641;48.904;9.126;2023-04-28T05:57:35;98215.69;;;17.28;50.14
60820;BME280;46641;48.904;9.126;2023-04-28T06:02:25;98216.34;;;17.31;50.15
60820;BME280;46641;48.904;9.126;2023-04-28T06:07:15;98220.81;;;17.30;49.96
60820;BME280;46641;48.904;9.126;2023-04-28T06:12:06;98220.00;;;17.29;50.18
60820;BME280;46641;48.904;9.126;2023-04-28T06:16:56;98226.09;;;17.30;49.88
60820;BME280;46641;48.904;9.126;2023-04-28T06:21:47;98220.59;;;17.32;49.81
60820;BME280;46641;48.904;9.126;2023-04-28T06:26:39;98209.41;;;17.29;49.95
60820;BME280;46641;48.904;9.126;2023-04-28T06:31:29;98208.78;;;17.27;49.91
60820;BME280;46641;48.904;9.126;2023-04-28T06:36:20;98203.09;;;17.31;49.56
60820;BME280;46641;48.904;9.126;2023-04-28T06:41:10;98203.31;;;17.29;49.47
60820;BME280;46641;48.904;9.126;2023-04-28T06:46:00;98203.31;;;17.29;49.54
60820;BME280;46641;48.904;9.126;2023-04-28T06:50:51;98206.16;;;17.27;49.45
60820;BME280;46641;48.904;9.126;2023-04-28T06:55:42;98208.59;;;17.29;49.61
60820;BME280;46641;48.904;9.126;2023-04-28T07:00:33;98196.38;;;17.28;49.63
60820;BME280;46641;48.904;9.126;2023-04-28T07:05:23;98196.38;;;17.28;49.47
60820;BME280;46641;48.904;9.126;2023-04-28T07:10:13;98195.56;;;17.27;49.33
60820;BME280;46641;48.904;9.126;2023-04-28T07:15:05;98191.09;;;17.28;49.48
60820;BME280;46641;48.904;9.126;2023-04-28T07:19:55;98192.91;;;17.27;49.77
60820;BME280;46641;48.904;9.126;2023-04-28T07:24:46;98193.53;;;17.29;49.60
60820;BME280;46641;48.904;9.126;2023-04-28T07:29:36;98197.81;;;17.31;49.69
60820;BME280;46641;48.904;9.126;2023-04-28T07:34:27;98196.38;;;17.28;49.87
60820;BME280;46641;48.904;9.126;2023-04-28T07:39:17;98196.38;;;17.28;50.03
60820;BME280;46641;48.904;9.126;2023-04-28T07:44:07;98213.06;;;17.28;50.21
60820;BME280;46641;48.904;9.126;2023-04-28T07:48:58;98213.06;;;17.28;50.45
60820;BME280;46641;48.904;9.126;2023-04-28T07:53:48;98214.09;;;17.27;50.48
60820;BME280;46641;48.904;9.126;2023-04-28T07:58:38;98211.44;;;17.27;50.50
60820;BME280;46641;48.904;9.126;2023-04-28T08:03:29;98228.31;;;17.26;50.55
60820;BME280;46641;48.904;9.126;2023-04-28T08:08:19;98243.19;;;17.27;50.70
60820;BME280;46641;48.904;9.126;2023-04-28T08:13:09;98235.63;;;17.24;50.39
60820;BME280;46641;48.904;9.126;2023-04-28T08:18:00;98215.50;;;17.23;50.67
60820;BME280;46641;48.904;9.126;2023-04-28T08:22:50;98234.00;;;17.23;50.49
60820;BME280;46641;48.904;9.126;2023-04-28T08:27:41;98236.66;;;17.23;50.49
60820;BME280;46641;48.904;9.126;2023-04-28T08:32:31;98228.72;;;17.23;50.25
60820;BME280;46641;48.904;9.126;2023-04-28T08:37:21;98224.44;;;17.22;50.27
60820;BME280;46641;48.904;9.126;2023-04-28T08:42:12;98235.03;;;17.22;50.35
60820;BME280;46641;48.904;9.126;2023-04-28T08:47:12;98246.41;;;17.23;51.30
60820;BME280;46641;48.904;9.126;2023-04-28T08:52:12;98256.78;;;17.24;51.18
60820;BME280;46641;48.904;9.126;2023-04-28T08:57:07;98255.78;;;17.25;50.63
60820;BME280;46641;48.904;9.126;2023-04-28T09:01:58;98250.47;;;17.25;50.14
60820;BME280;46641;48.904;9.126;2023-04-28T09:06:49;98256.78;;;17.24;50.31
60820;BME280;46641;48.904;9.126;2023-04-28T09:11:50;98266.34;;;17.25;51.68
60820;BME280;46641;48.904;9.126;2023-04-28T09:16:40;98266.97;;;17.27;50.14
60820;BME280;46641;48.904;9.126;2023-04-28T09:21:30;98273.50;;;17.32;50.60
60820;BME280;46641;48.904;9.126;2023-04-28T09:26:21;98272.50;;;17.33;50.87
60820;BME280;46641;48.904;9.126;2023-04-28T09:31:22;98274.94;;;17.34;52.05
60820;BME280;46641;48.904;9.126;2023-04-28T09:36:25;98267.22;;;17.33;52.22
60820;BME280;46641;48.904;9.126;2023-04-28T09:41:15;98260.91;;;17.34;50.26
60820;BME280;46641;48.904;9.126;2023-04-28T09:46:06;98246.06;;;17.33;50.03
60820;BME280;46641;48.904;9.126;2023-04-28T09:50:57;98246.25;;;17.31;50.26
60820;BME280;46641;48.904;9.126;2023-04-28T09:55:48;98242.00;;;17.37;50.27
60820;BME280;46641;48.904;9.126;2023-04-28T10:00:41;98245.09;;;17.47;50.03
60820;BME280;46641;48.904;9.126;2023-04-28T10:05:31;98243.47;;;17.46;55.14
60820;BME280;46641;48.904;9.126;2023-04-28T10:10:22;98245.47;;;17.44;59.49
60820;BME280;46641;48.904;9.126;2023-04-28T10:15:14;98242.19;;;17.35;59.55
60820;BME280;46641;48.904;9.126;2023-04-28T10:20:07;98240.97;;;17.38;57.11
60820;BME280;46641;48.904;9.126;2023-04-28T10:30:14;98241.28;;;17.63;57.17
60820;BME280;46641;48.904;9.126;2023-04-28T10:40:40;98243.97;;;17.76;56.36
60820;BME280;46641;48.904;9.126;2023-04-28T10:56:04;98248.72;;;17.94;57.92
60820;BME280;46641;48.904;9.126;2023-04-28T11:06:23;98246.91;;;17.46;68.36
60820;BME280;46641;48.904;9.126;2023-04-28T11:11:19;98250.22;;;17.55;67.55
60820;BME280;46641;48.904;9.126;2023-04-28T11:16:13;98249.88;;;17.71;65.96
60820;BME280;46641;48.904;9.126;2023-04-28T11:21:03;98243.06;;;17.49;67.76
60820;BME280;46641;48.904;9.126;2023-04-28T11:25:54;98239.94;;;18.00;63.96
60820;BME280;46641;48.904;9.126;2023-04-28T11:30:46;98246.28;;;18.26;61.66
60820;BME280;46641;48.904;9.126;2023-04-28T11:35:40;98243.06;;;18.37;60.85
60820;BME280;46641;48.904;9.126;2023-04-28T11:40:31;98243.66;;;18.39;59.59
60820;BME280;46641;48.904;9.126;2023-04-28T11:45:21;98254.66;;;18.22;66.11
60820;BME280;46641;48.904;9.126;2023-04-28T11:50:11;98239.75;;;18.02;66.22
60820;BME280;46641;48.904;9.126;2023-04-28T11:55:03;98236.50;;;18.06;67.19
60820;BME280;46641;48.904;9.126;2023-04-28T12:00:11;98241.78;;;17.99;67.25
60820;BME280;46641;48.904;9.126;2023-04-28T12:05:06;98240.97;;;17.99;68.70
60820;BME280;46641;48.904;9.126;2023-04-28T12:10:09;98248.72;;;18.01;68.06
60820;BME280;46641;48.904;9.126;2023-04-28T12:15:02;98258.69;;;17.92;70.92
60820;BME280;46641;48.904;9.126;2023-04-28T12:19:57;98257.66;;;17.93;69.32
60820;BME280;46641;48.904;9.126;2023-04-28T12:25:07;98275.59;;;17.84;67.97
60820;BME280;46641;48.904;9.126;2023-04-28T12:29:58;98283.72;;;17.83;67.14
60820;BME280;46641;48.904;9.126;2023-04-28T12:34:48;98291.47;;;17.84;67.74
60820;BME280;46641;48.904;9.126;2023-04-28T12:39:40;98273.53;;;17.80;66.25
60820;BME280;46641;48.904;9.126;2023-04-28T12:44:35;98261.59;;;18.10;64.43
60820;BME280;46641;48.904;9.126;2023-04-28T12:49:27;98239.88;;;17.73;66.08
60820;BME280;46641;48.904;9.126;2023-04-28T12:54:17;98215.31;;;18.26;63.76
60820;BME280;46641;48.904;9.126;2023-04-28T12:59:07;98225.09;;;18.52;63.06
60820;BME280;46641;48.904;9.126;2023-04-28T13:03:58;98226.09;;;18.64;62.38
60820;BME280;46641;48.904;9.126;2023-04-28T13:08:48;98228.56;;;18.73;62.36
60820;BME280;46641;48.904;9.126;2023-04-28T13:13:38;98230.81;;;18.76;62.37
60820;BME280;46641;48.904;9.126;2023-04-28T13:18:30;98228.75;;;17.98;65.44
60820;BME280;46641;48.904;9.126;2023-04-28T13:23:21;98224.28;;;17.98;65.37
60820;BME280;46641;48.904;9.126;2023-04-28T13:28:11;98211.03;;;18.45;63.03
60820;BME280;46641;48.904;9.126;2023-04-28T13:33:03;98214.28;;;18.67;62.50
60820;BME280;46641;48.904;9.126;2023-04-28T13:37:53;98203.47;;;18.82;62.51
60820;BME280;46641;48.904;9.126;2023-04-28T13:42:50;98207.34;;;18.86;62.09
60820;BME280;46641;48.904;9.126;2023-04-28T13:47:41;98211.19;;;18.90;62.25
60820;BME280;46641;48.904;9.126;2023-04-28T13:52:31;98192.44;;;18.91;61.74
60820;BME280;46641;48.904;9.126;2023-04-28T13:57:21;98191.19;;;18.94;61.74
60820;BME280;46641;48.904;9.126;2023-04-28T14:02:12;98179.34;;;18.97;61.32
60820;BME280;46641;48.904;9.126;2023-04-28T14:07:02;98160.59;;;18.98;61.62
60820;BME280;46641;48.904;9.126;2023-04-28T14:11:52;98169.13;;;19.00;61.75
60820;BME280;46641;48.904;9.126;2023-04-28T14:16:46;98177.69;;;19.02;61.50
60820;BME280;46641;48.904;9.126;2023-04-28T14:21:36;98159.72;;;19.04;61.71
60820;BME280;46641;48.904;9.126;2023-04-28T14:26:27;98171.56;;;19.08;61.73
60820;BME280;46641;48.904;9.126;2023-04-28T14:31:17;98155.66;;;19.08;61.56
60820;BME280;46641;48.904;9.126;2023-04-28T14:36:08;98155.22;;;19.11;61.32
60820;BME280;46641;48.904;9.126;2023-04-28T14:40:59;98159.91;;;19.09;64.21
60820;BME280;46641;48.904;9.126;2023-04-28T14:45:49;98168.22;;;18.41;65.89
60820;BME280;46641;48.904;9.126;2023-04-28T14:50:41;98160.19;;;18.88;62.33
60820;BME280;46641;48.904;9.126;2023-04-28T14:55:32;98153.00;;;19.08;61.34
60820;BME280;46641;48.904;9.126;2023-04-28T15:00:22;98167.22;;;19.21;61.09
60820;BME280;46641;48.904;9.126;2023-04-28T15:05:13;98158.41;;;19.27;60.93
60820;BME280;46641;48.904;9.126;2023-04-28T15:10:04;98157.97;;;19.30;60.61
60820;BME280;46641;48.904;9.126;2023-04-28T15:14:55;98146.56;;;19.29;60.34
60820;BME280;46641;48.904;9.126;2023-04-28T15:19:45;98150.00;;;19.30;60.06
60820;BME280;46641;48.904;9.126;2023-04-28T15:24:36;98138.59;;;19.29;60.01
60820;BME280;46641;48.904;9.126;2023-04-28T15:29:26;98126.34;;;19.28;59.96
60820;BME280;46641;48.904;9.126;2023-04-28T15:34:17;98134.94;;;19.30;60.09
60820;BME280;46641;48.904;9.126;2023-04-28T15:39:07;98140.63;;;19.34;60.05
60820;BME280;46641;48.904;9.126;2023-04-28T15:43:58;98143.28;;;19.34;59.90
60820;BME280;46641;48.904;9.126;2023-04-28T15:48:49;98130.81;;;19.34;59.90
60820;BME280;46641;48.904;9.126;2023-04-28T15:53:40;98128.38;;;19.33;59.77
60820;BME280;46641;48.904;9.126;2023-04-28T15:58:30;98122.84;;;19.34;59.55
60820;BME280;46641;48.904;9.126;2023-04-28T16:03:20;98110.81;;;19.32;59.57
60820;BME280;46641;48.904;9.126;2023-04-28T16:08:11;98111.63;;;19.32;59.57
60820;BME280;46641;48.904;9.126;2023-04-28T16:13:03;98113.47;;;19.32;59.37
60820;BME280;46641;48.904;9.126;2023-04-28T16:17:55;98120.41;;;19.33;59.77
60820;BME280;46641;48.904;9.126;2023-04-28T16:22:45;98128.38;;;19.33;59.69
60820;BME280;46641;48.904;9.126;2023-04-28T16:27:37;98122.84;;;19.34;59.92
60820;BME280;46641;48.904;9.126;2023-04-28T16:32:27;98109.59;;;19.34;60.20
60820;BME280;46641;48.904;9.126;2023-04-28T16:37:18;98128.97;;;19.35;60.56
60820;BME280;46641;48.904;9.126;2023-04-28T16:42:08;98118.34;;;19.35;60.44
60820;BME280;46641;48.904;9.126;2023-04-28T16:46:58;98107.94;;;19.33;60.58
60820;BME280;46641;48.904;9.126;2023-04-28T16:51:59;98124.31;;;19.30;61.28
60820;BME280;46641;48.904;9.126;2023-04-28T16:56:50;98136.31;;;19.33;60.67
60820;BME280;46641;48.904;9.126;2023-04-28T17:01:41;98127.34;;;19.34;60.99
60820;BME280;46641;48.904;9.126;2023-04-28T17:06:31;98126.50;;;19.33;60.85
60820;BME280;46641;48.904;9.126;2023-04-28T17:11:21;98126.31;;;19.35;60.88
60820;BME280;46641;48.904;9.126;2023-04-28T17:16:12;98123.88;;;19.33;60.99
60820;BME280;46641;48.904;9.126;2023-04-28T17:21:02;98111.44;;;19.34;60.69
60820;BME280;46641;48.904;9.126;2023-04-28T17:25:52;98112.44;;;19.33;60.61
60820;BME280;46641;48.904;9.126;2023-04-28T17:30:43;98119.41;;;19.34;60.64
60820;BME280;46641;48.904;9.126;2023-04-28T17:35:35;98115.91;;;19.33;60.37
60820;BME280;46641;48.904;9.126;2023-04-28T17:40:25;98118.78;;;19.32;59.87
60820;BME280;46641;48.904;9.126;2023-04-28T17:45:17;98119.81;;;19.31;60.14
60820;BME280;46641;48.904;9.126;2023-04-28T17:50:07;98117.16;;;19.31;60.03
60820;BME280;46641;48.904;9.126;2023-04-28T17:54:58;98121.66;;;19.30;59.98
60820;BME280;46641;48.904;9.126;2023-04-28T17:59:49;98129.63;;;19.30;59.90
60820;BME280;46641;48.904;9.126;2023-04-28T18:04:40;98131.44;;;19.30;59.66
60820;BME280;46641;48.904;9.126;2023-04-28T18:09:30;98130.63;;;19.29;59.65
60820;BME280;46641;48.904;9.126;2023-04-28T18:14:20;98137.78;;;19.29;59.51
60820;BME280;46641;48.904;9.126;2023-04-28T18:19:11;98128.41;;;19.26;59.45
60820;BME280;46641;48.904;9.126;2023-04-28T18:24:01;98139.00;;;19.26;59.55
60820;BME280;46641;48.904;9.126;2023-04-28T18:28:52;98143.75;;;19.24;59.40
60820;BME280;46641;48.904;9.126;2023-04-28T18:33:42;98145.34;;;19.25;59.10
60820;BME280;46641;48.904;9.126;2023-04-28T18:38:32;98168.84;;;19.22;59.25
60820;BME280;46641;48.904;9.126;2023-04-28T18:43:26;98156.81;;;19.19;59.43
60820;BME280;46641;48.904;9.126;2023-04-28T18:48:17;98167.41;;;19.19;59.08
60820;BME280;46641;48.904;9.126;2023-04-28T18:53:09;98173.75;;;19.18;59.20
60820;BME280;46641;48.904;9.126;2023-04-28T18:57:59;98176.63;;;19.17;58.92
60820;BME280;46641;48.904;9.126;2023-04-28T19:02:53;98181.34;;;19.14;58.89
60820;BME280;46641;48.904;9.126;2023-04-28T19:07:43;98180.94;;;19.11;58.87
60820;BME280;46641;48.904;9.126;2023-04-28T19:12:33;98190.94;;;19.09;58.80
60820;BME280;46641;48.904;9.126;2023-04-28T19:17:24;98192.78;;;19.08;58.96
60820;BME280;46641;48.904;9.126;2023-04-28T19:22:28;98200.53;;;19.03;59.34
60820;BME280;46641;48.904;9.126;2023-04-28T19:27:18;98205.25;;;19.01;58.74
60820;BME280;46641;48.904;9.126;2023-04-28T19:32:08;98204.66;;;18.99;58.82
60820;BME280;46641;48.904;9.126;2023-04-28T19:36:59;98205.88;;;18.97;58.19
60820;BME280;46641;48.904;9.126;2023-04-28T19:41:49;98210.78;;;18.93;58.39
60820;BME280;46641;48.904;9.126;2023-04-28T19:46:40;98218.13;;;18.91;58.16
60820;BME280;46641;48.904;9.126;2023-04-28T19:51:30;98214.06;;;18.88;57.89
60820;BME280;46641;48.904;9.126;2023-04-28T19:56:20;98213.44;;;18.86;57.86
60820;BME280;46641;48.904;9.126;2023-04-28T20:01:11;98224.28;;;18.85;57.98
60820;BME280;46641;48.904;9.126;2023-04-28T20:06:01;98218.53;;;18.81;57.69
60820;BME280;46641;48.904;9.126;2023-04-28T20:10:52;98228.34;;;18.81;57.61
60820;BME280;46641;48.904;9.126;2023-04-28T20:15:43;98233.47;;;18.76;57.51
60820;BME280;46641;48.904;9.126;2023-04-28T20:20:33;98244.06;;;18.76;57.52
60820;BME280;46641;48.904;9.126;2023-04-28T20:25:24;98236.09;;;18.69;57.37
60820;BME280;46641;48.904;9.126;2023-04-28T20:30:14;98237.91;;;18.68;57.35
60820;BME280;46641;48.904;9.126;2023-04-28T20:35:04;98229.56;;;18.65;57.30
60820;BME280;46641;48.904;9.126;2023-04-28T20:39:55;98227.94;;;18.64;57.21
60820;BME280;46641;48.904;9.126;2023-04-28T20:44:45;98220.41;;;18.61;57.18
60820;BME280;46641;48.904;9.126;2023-04-28T20:49:35;98218.97;;;18.58;57.34
60820;BME280;46641;48.904;9.126;2023-04-28T20:54:26;98226.31;;;18.56;57.26
60820;BME280;46641;48.904;9.126;2023-04-28T20:59:16;98218.56;;;18.55;57.41
60820;BME280;46641;48.904;9.126;2023-04-28T21:04:06;98234.88;;;18.52;57.38
60820;BME280;46641;48.904;9.126;2023-04-28T21:08:57;98230.81;;;18.49;57.19
60820;BME280;46641;48.904;9.126;2023-04-28T21:13:47;98236.13;;;18.49;57.15
60820;BME280;46641;48.904;9.126;2023-04-28T21:18:38;98236.53;;;18.46;57.21
60820;BME280;46641;48.904;9.126;2023-04-28T21:23:28;98238.56;;;18.44;57.21
60820;BME280;46641;48.904;9.126;2023-04-28T21:28:18;98231.81;;;18.41;57.16
60820;BME280;46641;48.904;9.126;2023-04-28T21:33:09;98236.53;;;18.39;57.18
60820;BME280;46641;48.904;9.126;2023-04-28T21:37:59;98238.75;;;18.36;57.23
60820;BME280;46641;48.904;9.126;2023-04-28T21:42:49;98232.66;;;18.35;57.27
60820;BME280;46641;48.904;9.126;2023-04-28T21:47:40;98238.16;;;18.34;57.13
60820;BME280;46641;48.904;9.126;2023-04-28T21:52:30;98248.13;;;18.32;57.10
60820;BME280;46641;48.904;9.126;2023-04-28T21:57:20;98232.44;;;18.30;57.11
60820;BME280;46641;48.904;9.126;2023-04-28T22:02:12;98232.66;;;18.29;57.03
60820;BME280;46641;48.904;9.126;2023-04-28T22:07:03;98238.16;;;18.27;57.05
60820;BME280;46641;48.904;9.126;2023-04-28T22:11:53;98241.00;;;18.26;57.08
60820;BME280;46641;48.904;9.126;2023-04-28T22:16:43;98233.25;;;18.24;56.97
60820;BME280;46641;48.904;9.126;2023-04-28T22:21:34;98244.84;;;18.23;57.11
60820;BME280;46641;48.904;9.126;2023-04-28T22:26:24;98238.34;;;18.19;57.06
60820;BME280;46641;48.904;9.126;2023-04-28T22:31:14;98242.84;;;18.18;56.89
60820;BME280;46641;48.904;9.126;2023-04-28T22:36:05;98235.28;;;18.15;57.15
60820;BME280;46641;48.904;9.126;2023-04-28T22:40:56;98238.97;;;18.14;57.02
60820;BME280;46641;48.904;9.126;2023-04-28T22:45:47;98236.50;;;18.13;57.00
60820;BME280;46641;48.904;9.126;2023-04-28T22:50:37;98235.09;;;18.10;57.06
60820;BME280;46641;48.904;9.126;2023-04-28T22:55:27;98230.38;;;18.06;57.06
60820;BME280;46641;48.904;9.126;2023-04-28T23:00:18;98237.75;;;18.04;57.09
60820;BME280;46641;48.904;9.126;2023-04-28T23:05:08;98238.72;;;18.03;57.24
60820;BME280;46641;48.904;9.126;2023-04-28T23:09:58;98234.66;;;18.00;57.13
60820;BME280;46641;48.904;9.126;2023-04-28T23:14:49;98234.06;;;17.98;57.35
60820;BME280;46641;48.904;9.126;2023-04-28T23:19:39;98227.31;;;17.95;57.36
60820;BME280;46641;48.904;9.126;2023-04-28T23:24:29;98238.13;;;17.94;57.28
60820;BME280;46641;48.904;9.126;2023-04-28T23:29:20;98236.88;;;17.90;57.34
60820;BME280;46641;48.904;9.126;2023-04-28T23:34:10;98240.56;;;17.89;57.32
60820;BME280;46641;48.904;9.126;2023-04-28T23:39:00;98232.78;;;17.87;57.46
60820;BME280;46641;48.904;9.126;2023-04-28T23:43:51;98236.47;;;17.86;57.23
60820;BME280;46641;48.904;9.126;2023-04-28T23:48:42;98235.03;;;17.84;57.05
60820;BME280;46641;48.904;9.126;2023-04-28T23:53:32;98229.16;;;17.82;57.33
60820;BME280;46641;48.904;9.126;2023-04-28T23:58:23;98220.78;;;17.78;57.35
